createdAt,value
2019-02-17T00:04:54.316Z,6.43
2019-02-17T00:09:57.814Z,9.53
2019-02-17T00:15:01.260Z,5.77
2019-02-17T00:20:04.852Z,8.53
2019-02-17T00:25:08.488Z,5.97
2019-02-17T00:30:12.032Z,8.03
2019-02-17T00:35:15.470Z,6.60
2019-02-17T00:40:18.883Z,10.97
2019-02-17T00:45:22.294Z,8.90
2019-02-17T00:50:25.748Z,6.90
2019-02-17T00:55:29.152Z,3.77
2019-02-17T01:00:32.540Z,6.60
2019-02-17T01:05:36.232Z,10.38
2019-02-17T01:10:39.625Z,9.37
2019-02-17T01:15:43.092Z,6.05
2019-02-17T01:20:46.655Z,5.50
2019-02-17T01:25:50.140Z,6.43
2019-02-17T01:30:53.755Z,7.07
2019-02-17T01:35:57.203Z,8.97
2019-02-17T01:41:00.671Z,7.60
2019-02-17T01:46:04.275Z,8.00
2019-02-17T01:51:07.782Z,7.40
2019-02-17T01:56:11.478Z,6.27
2019-02-17T02:01:17.180Z,6.93
2019-02-17T02:06:19.569Z,8.67
2019-02-17T02:11:23.054Z,7.77
2019-02-17T02:16:26.591Z,8.93
2019-02-17T02:21:30.000Z,5.47
2019-02-17T02:26:33.381Z,4.97
2019-02-17T02:31:36.787Z,5.87
2019-02-17T02:36:41.234Z,5.43
2019-02-17T02:41:44.795Z,7.08
2019-02-17T02:46:49.508Z,3.07
2019-02-17T02:51:52.937Z,8.53
2019-02-17T02:56:56.468Z,4.93
2019-02-17T03:01:59.858Z,5.17
2019-02-17T03:07:05.952Z,4.30
2019-02-17T03:12:09.410Z,5.80
2019-02-17T03:17:12.931Z,3.97
2019-02-17T03:22:16.375Z,8.40
2019-02-17T03:27:19.857Z,9.87
2019-02-17T03:32:23.273Z,3.83
2019-02-17T03:37:26.684Z,6.60
2019-02-17T03:42:30.139Z,3.08
2019-02-17T03:47:33.535Z,6.43
2019-02-17T03:52:37.005Z,3.60
2019-02-17T03:57:40.434Z,2.80
2019-02-17T04:02:43.838Z,4.20
2019-02-17T04:07:47.347Z,4.03
2019-02-17T04:12:50.815Z,5.73
2019-02-17T04:17:54.269Z,3.90
2019-02-17T04:22:57.796Z,4.27
2019-02-17T04:28:01.254Z,2.80
2019-02-17T04:33:04.666Z,6.30
2019-02-17T04:38:08.056Z,3.40
2019-02-17T04:43:11.716Z,2.83
2019-02-17T04:48:15.230Z,2.57
2019-02-17T04:53:18.678Z,3.63
2019-02-17T04:58:22.309Z,2.43
2019-02-17T05:03:25.758Z,5.80
2019-02-17T05:08:29.172Z,2.67
2019-02-17T05:13:32.597Z,3.70
2019-02-17T05:18:36.126Z,6.70
2019-02-17T05:23:39.709Z,3.67
2019-02-17T05:28:43.126Z,3.90
2019-02-17T05:33:46.657Z,2.90
2019-02-17T05:38:50.210Z,8.00
2019-02-17T05:43:53.686Z,3.17
2019-02-17T05:48:57.105Z,5.10
2019-02-17T05:54:00.526Z,3.63
2019-02-17T05:59:03.940Z,3.13
2019-02-17T06:04:07.389Z,2.75
2019-02-17T06:09:10.811Z,3.13
2019-02-17T06:14:14.397Z,3.80
2019-02-17T06:19:17.978Z,3.97
2019-02-17T06:24:21.404Z,5.37
2019-02-17T06:29:24.806Z,5.53
2019-02-17T06:34:28.278Z,8.43
2019-02-17T06:39:31.791Z,6.20
2019-02-17T06:44:35.305Z,3.63
2019-02-17T06:49:38.824Z,8.10
2019-02-17T06:54:42.488Z,6.27
2019-02-17T06:59:46.396Z,2.90
2019-02-17T07:04:55.072Z,8.93
2019-02-17T07:09:58.607Z,4.43
2019-02-17T07:15:02.117Z,3.97
2019-02-17T07:20:05.909Z,6.60
2019-02-17T07:25:10.407Z,8.20
2019-02-17T07:30:13.892Z,6.47
2019-02-17T07:35:17.397Z,6.37
2019-02-17T07:40:20.908Z,3.67
2019-02-17T07:45:24.478Z,6.07
2019-02-17T07:50:28.980Z,4.83
2019-02-17T07:55:32.534Z,10.30
2019-02-17T08:00:37.107Z,9.33
2019-02-17T08:05:40.648Z,9.87
2019-02-17T08:10:44.204Z,9.97
2019-02-17T08:15:47.674Z,11.03
2019-02-17T08:20:52.173Z,4.60
2019-02-17T08:25:55.839Z,11.33
2019-02-17T08:30:59.288Z,8.07
2019-02-17T08:36:03.052Z,9.73
2019-02-17T08:41:06.533Z,8.67
2019-02-17T08:46:10.106Z,7.83
2019-02-17T08:51:13.557Z,11.67
2019-02-17T08:56:18.779Z,9.33
2019-02-17T09:01:20.659Z,6.37
2019-02-17T09:06:24.104Z,8.03
2019-02-17T09:11:27.696Z,8.40
2019-02-17T09:16:31.115Z,10.97
2019-02-17T09:21:34.624Z,13.10
2019-02-17T09:26:39.082Z,12.47
2019-02-17T09:31:42.805Z,11.27
2019-02-17T09:36:46.405Z,13.50
2019-02-17T09:41:50.049Z,12.17
2019-02-17T09:46:53.623Z,10.23
2019-02-17T09:51:57.180Z,13.17
2019-02-17T09:57:00.734Z,10.33
2019-02-17T10:02:04.251Z,13.70
2019-02-17T10:07:07.805Z,11.47
2019-02-17T10:12:11.410Z,9.70
2019-02-17T10:17:15.056Z,11.37
2019-02-17T10:22:18.555Z,11.83
2019-02-17T10:27:22.270Z,10.57
2019-02-17T10:32:25.879Z,9.77
2019-02-17T10:37:29.962Z,16.67
2019-02-17T10:42:33.525Z,13.40
2019-02-17T10:47:37.032Z,11.53
2019-02-17T10:52:40.552Z,11.60
2019-02-17T10:57:46.223Z,13.67
2019-02-17T11:02:49.765Z,9.37
2019-02-17T11:07:53.211Z,12.13
2019-02-17T11:12:56.781Z,14.93
2019-02-17T11:18:00.229Z,10.87
2019-02-17T11:23:03.725Z,15.80
2019-02-17T11:28:07.196Z,10.80
2019-02-17T11:33:10.715Z,13.97
2019-02-17T11:38:14.183Z,12.55
2019-02-17T11:43:17.799Z,10.60
2019-02-17T11:48:22.289Z,13.20
2019-02-17T11:53:25.927Z,12.07
2019-02-17T11:58:29.576Z,14.57
2019-02-17T12:03:33.249Z,13.30
2019-02-17T12:08:36.845Z,14.27
2019-02-17T12:13:40.328Z,14.13
2019-02-17T12:18:44.004Z,11.97
2019-02-17T12:23:51.694Z,12.47
2019-02-17T12:28:59.428Z,17.10
2019-02-17T12:34:02.990Z,17.40
2019-02-17T12:39:08.587Z,17.30
2019-02-17T12:44:12.180Z,13.40
2019-02-17T12:49:15.772Z,13.67
2019-02-17T12:54:28.637Z,13.07
2019-02-17T12:59:22.953Z,12.05
2019-02-17T13:04:27.136Z,14.67
2019-02-17T13:09:30.751Z,13.67
2019-02-17T13:14:34.373Z,13.20
2019-02-17T13:19:37.800Z,15.40
2019-02-17T13:24:41.235Z,12.37
2019-02-17T13:29:44.686Z,16.23
2019-02-17T13:34:48.119Z,15.13
2019-02-17T13:39:51.560Z,14.70
2019-02-17T13:44:55.022Z,14.00
2019-02-17T13:49:58.451Z,16.93
2019-02-17T13:55:01.932Z,14.80
2019-02-17T14:00:07.351Z,14.83
2019-02-17T14:05:10.854Z,17.50
2019-02-17T14:10:14.524Z,15.87
2019-02-17T14:15:18.077Z,15.77
2019-02-17T14:20:21.690Z,14.60
2019-02-17T14:25:25.301Z,12.77
2019-02-17T14:30:30.358Z,13.90
2019-02-17T14:35:32.407Z,12.80
2019-02-17T14:40:35.904Z,10.83
2019-02-17T14:45:39.408Z,12.03
2019-02-17T14:50:42.868Z,12.87
2019-02-17T14:55:46.309Z,10.07
2019-02-17T15:00:49.877Z,9.03
2019-02-17T15:05:53.812Z,12.73
2019-02-17T15:10:57.284Z,12.80
2019-02-17T15:16:00.781Z,11.40
2019-02-17T15:21:04.389Z,13.32
2019-02-17T15:26:08.047Z,14.27
2019-02-17T15:31:11.663Z,15.20
2019-02-17T15:36:15.228Z,13.73
2019-02-17T15:41:19.409Z,11.93
2019-02-17T15:46:22.878Z,15.20
2019-02-17T15:51:26.470Z,13.63
2019-02-17T15:56:30.083Z,12.43
2019-02-17T16:01:33.686Z,14.10
2019-02-17T16:06:37.220Z,11.77
2019-02-17T16:11:40.857Z,8.07
2019-02-17T16:16:44.401Z,10.23
2019-02-17T16:21:48.104Z,9.63
2019-02-17T16:26:51.599Z,9.03
2019-02-17T16:31:55.992Z,10.73
2019-02-17T16:36:59.449Z,13.73
2019-02-17T16:42:03.088Z,12.70
2019-02-17T16:47:06.776Z,12.47
2019-02-17T16:52:10.264Z,12.17
2019-02-17T16:57:14.729Z,15.17
2019-02-17T17:02:18.535Z,10.73
2019-02-17T17:07:21.987Z,9.70
2019-02-17T17:12:25.472Z,5.90
2019-02-17T17:17:31.684Z,8.73
2019-02-17T17:22:33.547Z,10.37
2019-02-17T17:27:37.072Z,10.17
2019-02-17T17:32:40.609Z,14.07
2019-02-17T17:37:44.061Z,8.93
2019-02-17T17:42:47.526Z,8.73
2019-02-17T17:47:52.417Z,9.43
2019-02-17T17:52:55.978Z,9.43
2019-02-17T17:57:59.420Z,10.20
2019-02-17T18:03:02.966Z,11.57
2019-02-17T18:08:06.428Z,9.93
2019-02-17T18:13:10.058Z,11.50
2019-02-17T18:18:13.722Z,12.07
2019-02-17T18:23:17.394Z,14.83
2019-02-17T18:28:20.951Z,12.37
2019-02-17T18:33:24.496Z,24.57
2019-02-17T18:38:28.065Z,18.40
2019-02-17T18:43:31.733Z,15.27
2019-02-17T18:48:35.351Z,13.27
2019-02-17T18:53:39.114Z,22.07
2019-02-17T18:58:42.679Z,14.73
2019-02-17T19:03:46.150Z,12.53
2019-02-17T19:08:49.724Z,14.73
2019-02-17T19:13:53.279Z,13.07
2019-02-17T19:18:57.064Z,12.27
2019-02-17T19:24:00.821Z,12.73
2019-02-17T19:29:04.580Z,11.73
2019-02-17T19:34:08.166Z,16.47
2019-02-17T19:39:11.695Z,10.07
2019-02-17T19:44:15.255Z,11.43
2019-02-17T19:49:18.919Z,11.43
2019-02-17T19:54:22.618Z,11.33
2019-02-17T19:59:26.069Z,11.03
2019-02-17T20:04:36.199Z,10.80
2019-02-17T20:09:40.860Z,10.07
2019-02-17T20:14:44.669Z,10.70
2019-02-17T20:19:48.195Z,11.60
2019-02-17T20:24:51.908Z,21.50
2019-02-17T20:29:55.672Z,12.97
2019-02-17T20:34:59.171Z,11.50
2019-02-17T20:40:02.863Z,9.07
2019-02-17T20:45:07.183Z,9.63
2019-02-17T20:50:10.750Z,10.20
2019-02-17T20:55:14.495Z,7.17
2019-02-17T21:00:18.208Z,8.03
2019-02-17T21:05:21.989Z,7.43
2019-02-17T21:10:25.783Z,7.47
2019-02-17T21:15:30.098Z,9.23
2019-02-17T21:20:34.951Z,9.47
2019-02-17T21:25:38.545Z,7.07
2019-02-17T21:30:42.121Z,8.27
2019-02-17T21:35:45.716Z,9.80
2019-02-17T21:40:49.132Z,10.17
2019-02-17T21:45:52.837Z,6.83
2019-02-17T21:50:56.428Z,9.17
2019-02-17T21:55:59.873Z,9.37
2019-02-17T22:01:03.415Z,12.33
2019-02-17T22:06:07.072Z,9.53
2019-02-17T22:11:10.615Z,8.10
2019-02-17T22:16:14.300Z,12.00
2019-02-17T22:21:18.012Z,7.27
2019-02-17T22:26:21.456Z,7.40
2019-02-17T22:31:25.135Z,6.97
2019-02-17T22:36:28.656Z,9.30
2019-02-17T22:41:32.196Z,7.43
2019-02-17T22:46:36.047Z,3.87
2019-02-17T22:51:39.822Z,9.40
2019-02-17T22:56:43.220Z,4.77
2019-02-17T23:01:46.725Z,6.77
2019-02-17T23:06:54.050Z,11.07
2019-02-17T23:11:53.670Z,9.50
2019-02-17T23:16:57.072Z,13.57
2019-02-17T23:22:00.637Z,3.97
2019-02-17T23:27:05.128Z,6.62
2019-02-17T23:32:08.654Z,7.67
2019-02-17T23:37:12.047Z,9.10
2019-02-17T23:42:15.590Z,5.63
2019-02-17T23:47:19.003Z,13.43
2019-02-17T23:52:22.441Z,11.47
2019-02-17T23:57:25.861Z,13.67
